Time;durP1;ratioP1;P1;durP2;ratioP2;P2;SDS_P1;SDS_P2;PMS_P1;PMS_P2;Temp;Humidity;BMP_temperature;BMP_pressure;BME280_temperature;BME280_humidity;BME280_pressure;Samples;Min_cycle;Max_cycle;Signal;HPM_P1;HPM_P2
2021/08/08 00:01:42;;;;;;;1.00;0.80;;;15.90;99.90;;;;;;5091319;28;20454;-51
2021/08/08 00:04:09;;;;;;;1.33;0.80;;;16.00;99.90;;;;;;5091262;28;20971;-51
2021/08/08 00:06:37;;;;;;;1.93;0.90;;;16.00;99.90;;;;;;5091632;28;20514;-52
2021/08/08 00:09:04;;;;;;;0.80;0.80;;;16.00;99.90;;;;;;5091861;28;21066;-52
2021/08/08 00:11:32;;;;;;;1.17;0.70;;;15.90;99.90;;;;;;5082598;28;20446;-53
2021/08/08 00:13:59;;;;;;;0.80;0.70;;;16.00;99.90;;;;;;5086296;28;20485;-54
2021/08/08 00:16:27;;;;;;;1.07;0.60;;;16.00;99.90;;;;;;5091189;28;20450;-53
2021/08/08 00:18:54;;;;;;;1.67;0.67;;;16.10;99.90;;;;;;5091882;28;20445;-52
2021/08/08 00:21:21;;;;;;;0.83;0.73;;;16.20;99.90;;;;;;5092487;28;20962;-52
2021/08/08 00:23:50;;;;;;;0.80;0.70;;;16.10;99.90;;;;;;5094782;28;21010;-55
2021/08/08 00:26:17;;;;;;;1.30;0.80;;;16.00;99.90;;;;;;5094556;28;20970;-53
2021/08/08 00:28:49;;;;;;;1.57;0.80;;;16.00;99.90;;;;;;5092664;28;20495;-52
2021/08/08 00:31:22;;;;;;;1.13;0.70;;;16.10;99.90;;;;;;5093571;28;20445;-53
2021/08/08 00:33:50;;;;;;;2.90;0.70;;;16.00;99.90;;;;;;5087438;28;20515;-54
2021/08/08 00:36:18;;;;;;;0.60;0.50;;;16.00;99.90;;;;;;5056455;28;20454;-53
2021/08/08 00:38:45;;;;;;;1.03;0.70;;;16.10;99.90;;;;;;5092597;28;20951;-55
2021/08/08 00:41:14;;;;;;;1.20;0.60;;;16.00;99.90;;;;;;5094793;28;20449;-53
2021/08/08 00:43:41;;;;;;;1.47;0.80;;;16.00;99.90;;;;;;5089547;28;20531;-52
2021/08/08 00:46:08;;;;;;;1.00;0.70;;;16.00;99.90;;;;;;5094740;28;20836;-52
2021/08/08 00:48:35;;;;;;;0.93;0.67;;;16.10;99.90;;;;;;5091857;28;20539;-52
2021/08/08 00:51:02;;;;;;;0.80;0.60;;;16.00;99.90;;;;;;5085865;28;20458;-52
2021/08/08 00:53:29;;;;;;;3.73;0.70;;;16.00;99.90;;;;;;5090054;28;21075;-52
2021/08/08 00:55:56;;;;;;;0.60;0.50;;;16.00;99.90;;;;;;5078586;28;20538;-51
2021/08/08 00:58:26;;;;;;;0.70;0.60;;;16.00;99.90;;;;;;5089802;28;20941;-51
2021/08/08 01:00:56;;;;;;;0.70;0.60;;;16.00;99.90;;;;;;5074239;28;20451;-52
2021/08/08 01:03:24;;;;;;;0.70;0.57;;;16.00;99.90;;;;;;5074069;28;20466;-52
2021/08/08 01:05:56;;;;;;;0.60;0.60;;;16.00;99.90;;;;;;5080928;28;20562;-51
2021/08/08 01:08:27;;;;;;;1.27;0.67;;;16.10;99.90;;;;;;5093958;28;20450;-52
2021/08/08 01:10:55;;;;;;;0.60;0.60;;;16.00;99.90;;;;;;5094237;28;20519;-51
2021/08/08 01:13:24;;;;;;;1.00;0.60;;;16.00;99.90;;;;;;5093832;28;20454;-52
2021/08/08 01:15:51;;;;;;;0.60;0.57;;;16.10;99.90;;;;;;5093269;28;20500;-52
2021/08/08 01:18:19;;;;;;;0.90;0.70;;;16.10;99.90;;;;;;5093931;28;20455;-52
2021/08/08 01:20:48;;;;;;;2.70;0.73;;;16.00;99.90;;;;;;5093628;28;20532;-51
2021/08/08 01:23:15;;;;;;;0.77;0.60;;;16.00;99.90;;;;;;5093688;28;20453;-52
2021/08/08 01:25:46;;;;;;;0.60;0.50;;;16.00;99.90;;;;;;5088037;28;20443;-51
2021/08/08 01:28:13;;;;;;;0.80;0.60;;;16.00;99.90;;;;;;5074703;28;20455;-52
2021/08/08 01:30:40;;;;;;;0.50;0.40;;;16.00;99.90;;;;;;5073486;28;20450;-52
2021/08/08 01:33:09;;;;;;;0.50;0.50;;;16.00;99.90;;;;;;5072652;28;20463;-51
2021/08/08 01:35:36;;;;;;;1.10;0.67;;;16.10;99.90;;;;;;5076436;28;20556;-51
2021/08/08 01:38:04;;;;;;;1.33;0.60;;;16.20;99.90;;;;;;5093689;28;20442;-52
2021/08/08 01:40:36;;;;;;;0.60;0.50;;;16.20;99.90;;;;;;5093556;28;20491;-52
2021/08/08 01:43:09;;;;;;;0.93;0.60;;;16.20;99.90;;;;;;5093209;28;20450;-51
2021/08/08 01:45:38;;;;;;;1.37;0.50;;;16.10;99.90;;;;;;5089248;28;21051;-52
2021/08/08 01:48:08;;;;;;;0.87;0.60;;;16.10;99.90;;;;;;5073088;28;20480;-52
2021/08/08 01:50:36;;;;;;;0.87;0.60;;;15.90;99.90;;;;;;5073194;28;20447;-51
2021/08/08 01:53:04;;;;;;;0.80;0.60;;;16.00;99.90;;;;;;5082374;28;20442;-51
2021/08/08 01:55:32;;;;;;;1.07;0.60;;;15.90;99.90;;;;;;5091330;28;20509;-52
2021/08/08 01:57:59;;;;;;;0.87;0.60;;;16.00;99.90;;;;;;5092917;28;20893;-52
2021/08/08 02:00:28;;;;;;;0.60;0.50;;;16.00;99.90;;;;;;5093320;28;20548;-52
2021/08/08 02:02:58;;;;;;;0.70;0.50;;;16.00;99.90;;;;;;5092958;28;20519;-52
2021/08/08 02:05:26;;;;;;;0.50;0.50;;;16.00;99.90;;;;;;5090688;28;20465;-52
2021/08/08 02:07:53;;;;;;;1.83;0.53;;;16.00;99.90;;;;;;5086189;28;20457;-52
2021/08/08 02:10:21;;;;;;;1.83;0.50;;;16.00;99.90;;;;;;5092934;28;20499;-52
2021/08/08 02:12:48;;;;;;;4.50;0.60;;;16.10;99.90;;;;;;5093003;28;20450;-51
2021/08/08 02:15:15;;;;;;;0.70;0.60;;;16.20;99.90;;;;;;5092016;28;20546;-52
2021/08/08 02:17:44;;;;;;;1.43;0.53;;;16.20;99.90;;;;;;5093026;28;20450;-51
2021/08/08 02:20:15;;;;;;;0.70;0.60;;;16.20;99.90;;;;;;5092675;28;20454;-52
2021/08/08 02:22:42;;;;;;;0.70;0.50;;;16.20;99.90;;;;;;5092545;28;20927;-52
2021/08/08 02:25:10;;;;;;;0.60;0.50;;;16.20;99.90;;;;;;5092239;28;20462;-52
2021/08/08 02:27:37;;;;;;;0.63;0.63;;;16.10;99.90;;;;;;5072728;28;20884;-52
2021/08/08 02:30:05;;;;;;;2.10;0.77;;;16.00;99.90;;;;;;5072281;28;20949;-52
2021/08/08 02:32:32;;;;;;;0.60;0.60;;;15.90;99.90;;;;;;5071912;28;20500;-52
2021/08/08 02:35:00;;;;;;;2.07;0.60;;;15.90;99.90;;;;;;5072105;28;20539;-52
2021/08/08 02:37:27;;;;;;;1.00;0.80;;;16.10;99.90;;;;;;5090477;28;20446;-51
2021/08/08 02:39:54;;;;;;;1.87;1.20;;;16.20;99.90;;;;;;5092447;28;20446;-51
2021/08/08 02:42:22;;;;;;;1.13;1.03;;;16.10;99.90;;;;;;5092113;28;20446;-51
2021/08/08 02:44:49;;;;;;;1.10;1.00;;;16.10;99.90;;;;;;5091040;28;20987;-52
2021/08/08 02:47:16;;;;;;;2.93;1.90;;;16.10;99.90;;;;;;5073645;28;20957;-52
2021/08/08 02:49:43;;;;;;;0.90;0.90;;;16.20;99.90;;;;;;5072245;28;20451;-51
2021/08/08 02:52:13;;;;;;;1.93;1.00;;;16.10;99.90;;;;;;5071689;28;20983;-52
2021/08/08 02:54:40;;;;;;;0.97;0.97;;;16.10;99.90;;;;;;5082058;28;20481;-52
2021/08/08 02:57:07;;;;;;;2.13;1.40;;;16.00;99.90;;;;;;5090790;28;20461;-52
2021/08/08 02:59:35;;;;;;;1.10;1.00;;;16.00;99.90;;;;;;5074113;28;21022;-52
2021/08/08 03:02:02;;;;;;;1.33;1.20;;;16.00;99.90;;;;;;5072019;28;20451;-52
2021/08/08 03:04:29;;;;;;;1.33;1.23;;;16.00;99.90;;;;;;5071907;28;20565;-52
2021/08/08 03:06:57;;;;;;;1.33;0.90;;;16.00;99.90;;;;;;5083210;28;20877;-52
2021/08/08 03:09:25;;;;;;;1.40;1.10;;;16.00;99.90;;;;;;5092104;28;20450;-52
2021/08/08 03:11:52;;;;;;;1.77;1.00;;;15.90;99.90;;;;;;5090984;28;21019;-52
2021/08/08 03:14:20;;;;;;;1.33;1.20;;;15.90;99.90;;;;;;5091572;28;20515;-52
2021/08/08 03:16:48;;;;;;;1.73;1.20;;;15.90;99.90;;;;;;5081540;28;20509;-52
2021/08/08 03:19:16;;;;;;;1.13;1.00;;;15.80;99.90;;;;;;5087290;28;20476;-52
2021/08/08 03:21:45;;;;;;;2.10;1.00;;;15.80;99.90;;;;;;5091856;28;20446;-52
2021/08/08 03:24:12;;;;;;;2.03;1.00;;;15.90;99.90;;;;;;5091382;28;20497;-52
2021/08/08 03:26:41;;;;;;;1.50;1.00;;;15.80;99.90;;;;;;5086898;28;20443;-52
2021/08/08 03:29:09;;;;;;;1.17;1.00;;;15.90;99.90;;;;;;5071504;28;20508;-52
2021/08/08 03:31:37;;;;;;;1.00;0.90;;;15.90;99.90;;;;;;5088768;28;20939;-52
2021/08/08 03:34:05;;;;;;;1.00;0.90;;;15.80;99.90;;;;;;5105168;22;20495;-57
2021/08/08 03:36:32;;;;;;;2.27;0.93;;;15.80;99.90;;;;;;5051101;28;20494;-57
2021/08/08 03:39:01;;;;;;;1.20;1.10;;;15.90;99.90;;;;;;5050776;28;20905;-58
2021/08/08 03:41:28;;;;;;;1.10;1.00;;;15.90;99.90;;;;;;5051756;28;20452;-57
2021/08/08 03:43:56;;;;;;;1.63;1.07;;;16.00;99.90;;;;;;5051317;28;20467;-57
2021/08/08 03:46:23;;;;;;;1.23;1.10;;;15.90;99.90;;;;;;5051240;28;20448;-57
2021/08/08 03:48:50;;;;;;;0.93;0.87;;;16.00;99.90;;;;;;5051433;28;20448;-57
2021/08/08 03:51:17;;;;;;;1.70;0.90;;;16.00;99.90;;;;;;5051834;28;20448;-57
2021/08/08 03:53:45;;;;;;;1.10;0.90;;;16.00;99.90;;;;;;5051480;28;20505;-59
2021/08/08 03:56:12;;;;;;;1.30;1.20;;;16.00;99.90;;;;;;5052087;28;20991;-59
2021/08/08 03:58:39;;;;;;;0.90;0.90;;;16.00;99.90;;;;;;5055671;28;20538;-59
2021/08/08 04:01:07;;;;;;;1.10;1.00;;;16.00;99.90;;;;;;5055853;28;20452;-59
2021/08/08 04:03:35;;;;;;;0.90;0.60;;;16.00;99.90;;;;;;5055367;28;20456;-59
2021/08/08 04:06:03;;;;;;;1.13;0.70;;;15.90;99.90;;;;;;5055409;28;20443;-59
2021/08/08 04:08:30;;;;;;;3.13;0.70;;;15.80;99.90;;;;;;5055714;28;20505;-59
2021/08/08 04:10:57;;;;;;;1.63;0.70;;;15.90;99.90;;;;;;5055324;28;20465;-59
2021/08/08 04:13:24;;;;;;;1.07;0.70;;;15.80;99.90;;;;;;5055416;28;20542;-59
2021/08/08 04:15:51;;;;;;;1.03;0.90;;;15.80;99.90;;;;;;5054538;28;20479;-59
2021/08/08 04:18:20;;;;;;;0.83;0.83;;;15.90;99.90;;;;;;5059606;28;20452;-59
2021/08/08 04:20:46;;;;;;;1.20;0.70;;;15.80;99.90;;;;;;5058770;28;20448;-59
2021/08/08 04:23:13;;;;;;;1.10;0.63;;;15.90;99.90;;;;;;5054583;28;20497;-59
2021/08/08 04:25:41;;;;;;;1.00;0.70;;;15.90;99.90;;;;;;5054979;28;20475;-58
2021/08/08 04:28:08;;;;;;;0.70;0.70;;;15.90;99.90;;;;;;5054532;28;20958;-59
2021/08/08 04:30:35;;;;;;;2.40;0.90;;;15.90;99.90;;;;;;5055006;28;20451;-59
2021/08/08 04:33:03;;;;;;;2.10;0.67;;;16.00;99.90;;;;;;5055261;28;20482;-59
2021/08/08 04:35:32;;;;;;;0.80;0.70;;;15.90;99.90;;;;;;5054772;28;20487;-59
2021/08/08 04:38:00;;;;;;;1.17;0.60;;;15.90;99.90;;;;;;5054609;28;20532;-59
2021/08/08 04:40:27;;;;;;;3.83;1.10;;;15.80;99.90;;;;;;5054723;28;20508;-60
2021/08/08 04:42:54;;;;;;;2.17;0.70;;;15.80;99.90;;;;;;5054705;28;20447;-59
2021/08/08 04:45:21;;;;;;;1.77;0.70;;;15.80;99.90;;;;;;5054593;28;20456;-59
2021/08/08 04:47:48;;;;;;;1.53;0.60;;;15.80;99.90;;;;;;5054204;28;21038;-59
2021/08/08 04:50:15;;;;;;;0.80;0.70;;;15.80;99.90;;;;;;5054562;28;20521;-59
2021/08/08 04:52:45;;;;;;;0.70;0.50;;;15.80;99.90;;;;;;5054587;28;20866;-59
2021/08/08 04:55:13;;;;;;;1.67;0.70;;;15.80;99.90;;;;;;5054453;28;20468;-59
2021/08/08 04:57:40;;;;;;;0.97;0.70;;;15.80;99.90;;;;;;5053349;28;20448;-59
2021/08/08 05:00:08;;;;;;;0.70;0.70;;;15.80;99.90;;;;;;5053785;28;20466;-59
2021/08/08 05:02:36;;;;;;;1.73;0.80;;;15.80;99.90;;;;;;5053740;28;20501;-59
2021/08/08 05:05:04;;;;;;;1.60;0.60;;;15.90;99.90;;;;;;5054064;28;20522;-59
2021/08/08 05:07:31;;;;;;;1.00;0.73;;;15.90;99.90;;;;;;5053086;28;21020;-59
2021/08/08 05:09:59;;;;;;;0.90;0.70;;;15.80;99.90;;;;;;5054048;28;20493;-59
2021/08/08 05:12:26;;;;;;;1.43;0.60;;;15.80;99.90;;;;;;5053756;28;20448;-59
2021/08/08 05:14:53;;;;;;;1.67;0.80;;;15.80;99.90;;;;;;5053933;28;20467;-59
2021/08/08 05:17:20;;;;;;;3.03;0.70;;;15.80;99.90;;;;;;5053120;28;20480;-59
2021/08/08 05:19:47;;;;;;;1.00;0.83;;;15.80;99.90;;;;;;5048120;28;20872;-59
2021/08/08 05:22:14;;;;;;;1.87;0.90;;;15.80;99.90;;;;;;5034035;28;20589;-59
2021/08/08 05:24:41;;;;;;;1.70;0.93;;;15.80;99.90;;;;;;5046498;28;20517;-59
2021/08/08 05:27:14;;;;;;;1.00;0.90;;;15.80;99.90;;;;;;5053436;28;20454;-59
2021/08/08 05:29:41;;;;;;;1.37;1.10;;;15.90;99.90;;;;;;5054492;28;20451;-59
2021/08/08 05:32:08;;;;;;;0.70;0.70;;;15.90;99.90;;;;;;5053604;28;20608;-58
2021/08/08 05:34:35;;;;;;;1.70;1.30;;;16.00;99.90;;;;;;5053117;28;20521;-59
2021/08/08 05:37:02;;;;;;;2.03;0.97;;;16.00;99.90;;;;;;5053306;28;20538;-59
2021/08/08 05:39:29;;;;;;;1.37;1.27;;;15.90;99.90;;;;;;5053525;28;20451;-59
2021/08/08 05:41:56;;;;;;;1.03;0.93;;;15.90;99.90;;;;;;5053343;28;20439;-59
2021/08/08 05:44:25;;;;;;;1.10;1.00;;;15.90;99.90;;;;;;5053562;28;20531;-59
2021/08/08 05:46:52;;;;;;;2.83;1.30;;;15.90;99.90;;;;;;5053818;28;20436;-59
2021/08/08 05:49:19;;;;;;;1.47;1.20;;;15.90;99.90;;;;;;5053640;28;20533;-59
2021/08/08 05:51:46;;;;;;;1.37;1.27;;;15.80;99.90;;;;;;5053764;28;20518;-59
2021/08/08 05:54:13;;;;;;;1.80;1.70;;;15.80;99.90;;;;;;5053795;28;20907;-59
2021/08/08 05:56:40;;;;;;;1.53;1.10;;;15.80;99.90;;;;;;5053163;28;20488;-59
2021/08/08 05:59:07;;;;;;;1.37;1.27;;;15.80;99.90;;;;;;5054017;28;21102;-59
2021/08/08 06:01:36;;;;;;;2.43;1.10;;;15.90;99.90;;;;;;5053606;28;20450;-59
2021/08/08 06:04:03;;;;;;;2.10;1.00;;;15.80;99.90;;;;;;5053337;28;20467;-59
2021/08/08 06:06:30;;;;;;;1.33;1.00;;;15.90;99.90;;;;;;5053646;28;20444;-59
2021/08/08 06:08:57;;;;;;;2.10;0.90;;;16.00;99.90;;;;;;5059453;28;20456;-59
2021/08/08 06:11:24;;;;;;;0.83;0.83;;;15.90;99.90;;;;;;5052958;28;20509;-59
2021/08/08 06:13:51;;;;;;;1.17;0.90;;;16.00;99.90;;;;;;5052631;28;20467;-59
2021/08/08 06:16:18;;;;;;;1.43;1.00;;;16.10;99.90;;;;;;5052654;28;20483;-59
2021/08/08 06:18:46;;;;;;;1.33;0.97;;;16.20;99.90;;;;;;5052802;28;20455;-59
2021/08/08 06:21:13;;;;;;;2.20;1.73;;;16.20;99.90;;;;;;5052678;28;20448;-59
2021/08/08 06:23:40;;;;;;;2.10;1.60;;;16.30;99.90;;;;;;5050957;28;20802;-59
2021/08/08 06:26:07;;;;;;;1.73;1.30;;;16.30;99.90;;;;;;5052517;28;20448;-59
2021/08/08 06:28:34;;;;;;;2.60;1.90;;;16.30;99.90;;;;;;5052765;28;20452;-59
2021/08/08 06:31:01;;;;;;;2.97;1.30;;;16.40;99.90;;;;;;5052709;28;20504;-59
2021/08/08 06:33:28;;;;;;;1.53;1.43;;;16.50;99.90;;;;;;5052049;28;20877;-59
2021/08/08 06:35:56;;;;;;;1.67;1.37;;;16.60;99.90;;;;;;5052308;28;20475;-59
2021/08/08 06:38:23;;;;;;;2.27;1.40;;;16.60;99.90;;;;;;5052718;28;21039;-59
2021/08/08 06:40:50;;;;;;;1.20;1.10;;;16.60;99.90;;;;;;5052561;28;20509;-59
2021/08/08 06:43:17;;;;;;;1.37;1.27;;;16.70;99.90;;;;;;5052232;28;20501;-59
2021/08/08 06:45:44;;;;;;;1.33;1.10;;;16.70;99.90;;;;;;5052136;28;20517;-59
2021/08/08 06:48:11;;;;;;;1.30;1.20;;;16.80;99.90;;;;;;5052915;28;20451;-59
2021/08/08 06:50:38;;;;;;;1.13;1.03;;;17.00;99.90;;;;;;5052404;28;20443;-59
2021/08/08 06:53:06;;;;;;;1.63;1.13;;;17.10;99.90;;;;;;5052055;28;20499;-58
2021/08/08 06:55:33;;;;;;;1.20;1.10;;;17.20;99.90;;;;;;5051769;28;20529;-59
2021/08/08 06:58:00;;;;;;;1.00;0.90;;;17.30;99.90;;;;;;5052309;28;20501;-59
2021/08/08 07:00:28;;;;;;;1.57;1.20;;;17.30;99.90;;;;;;5051938;28;20451;-59
2021/08/08 07:02:55;;;;;;;1.47;0.70;;;17.40;99.90;;;;;;5051697;28;20444;-59
2021/08/08 07:05:22;;;;;;;1.37;1.27;;;17.40;99.90;;;;;;5051820;28;20467;-59
2021/08/08 07:07:49;;;;;;;1.00;0.90;;;17.40;99.90;;;;;;5051875;28;20489;-59
2021/08/08 07:10:17;;;;;;;1.10;0.90;;;17.40;99.90;;;;;;5052133;28;20513;-59
2021/08/08 07:12:44;;;;;;;0.93;0.87;;;17.40;99.90;;;;;;5051682;28;20447;-59
2021/08/08 07:15:12;;;;;;;2.23;1.00;;;17.50;99.90;;;;;;5051643;28;20468;-59
2021/08/08 07:17:39;;;;;;;1.40;1.17;;;17.40;99.90;;;;;;5051608;28;21008;-59
2021/08/08 07:20:08;;;;;;;1.03;0.93;;;17.50;99.90;;;;;;5051652;28;20456;-59
2021/08/08 07:22:35;;;;;;;1.30;1.20;;;17.40;99.90;;;;;;5051432;28;20509;-59
2021/08/08 07:25:02;;;;;;;1.20;1.00;;;17.50;99.90;;;;;;5051225;28;21043;-60
2021/08/08 07:27:30;;;;;;;1.50;1.40;;;17.60;99.90;;;;;;5051518;28;20930;-60
2021/08/08 07:29:57;;;;;;;1.00;1.00;;;17.70;99.90;;;;;;5051522;28;21022;-60
2021/08/08 07:32:25;;;;;;;1.83;1.00;;;17.80;99.90;;;;;;5050764;28;20497;-59
2021/08/08 07:34:53;;;;;;;3.27;1.67;;;17.90;99.90;;;;;;5051187;28;20601;-59
2021/08/08 07:37:21;;;;;;;2.37;2.17;;;18.10;99.90;;;;;;5031662;28;20495;-59
2021/08/08 07:39:49;;;;;;;2.30;1.20;;;18.10;99.90;;;;;;5031644;28;20976;-59
2021/08/08 07:42:16;;;;;;;0.90;0.90;;;18.10;99.90;;;;;;5033075;28;20517;-58
2021/08/08 07:44:44;;;;;;;3.77;1.50;;;18.10;99.90;;;;;;5055464;28;20468;-59
2021/08/08 07:47:15;;;;;;;1.00;0.80;;;18.20;99.90;;;;;;5050725;28;20456;-60
2021/08/08 07:49:42;;;;;;;4.30;1.00;;;18.10;99.90;;;;;;5051287;28;20448;-59
2021/08/08 07:52:09;;;;;;;1.67;0.90;;;18.20;99.90;;;;;;5050791;28;20513;-58
2021/08/08 07:54:37;;;;;;;1.20;0.80;;;18.30;99.90;;;;;;5051184;28;20471;-59
2021/08/08 07:57:04;;;;;;;0.90;0.90;;;18.30;99.90;;;;;;5050694;28;20487;-59
2021/08/08 07:59:31;;;;;;;2.10;0.80;;;18.30;99.90;;;;;;5050970;28;20859;-59
2021/08/08 08:01:59;;;;;;;1.00;0.90;;;18.30;99.90;;;;;;5050945;28;20456;-59
2021/08/08 08:04:26;;;;;;;1.77;1.20;;;18.40;99.90;;;;;;5050403;28;20468;-60
2021/08/08 08:06:54;;;;;;;1.20;1.03;;;18.30;99.90;;;;;;5050833;28;20501;-59
2021/08/08 08:09:22;;;;;;;3.43;2.40;;;18.00;99.90;;;;;;5050796;28;20887;-59
2021/08/08 08:11:49;;;;;;;4.07;2.73;;;18.10;99.90;;;;;;5037823;28;20498;-60
2021/08/08 08:14:17;;;;;;;2.30;1.53;;;18.20;99.90;;;;;;5034211;28;20501;-59
2021/08/08 08:16:44;;;;;;;1.60;1.47;;;18.20;99.90;;;;;;5031053;28;20881;-59
2021/08/08 08:19:12;;;;;;;1.20;1.10;;;18.30;99.90;;;;;;5031139;28;20456;-59
2021/08/08 08:21:39;;;;;;;1.73;1.10;;;18.10;99.90;;;;;;5031422;28;20460;-59
2021/08/08 08:24:06;;;;;;;1.83;1.60;;;17.90;99.90;;;;;;5031055;28;20474;-59
2021/08/08 08:26:33;;;;;;;1.90;1.10;;;17.60;99.90;;;;;;5043872;28;20440;-58
2021/08/08 08:29:00;;;;;;;1.50;1.37;;;17.40;99.90;;;;;;5051479;28;20506;-59
2021/08/08 08:31:27;;;;;;;2.80;0.90;;;17.10;99.90;;;;;;5051102;28;20456;-59
2021/08/08 08:33:55;;;;;;;3.00;1.30;;;16.90;99.90;;;;;;5050691;28;20479;-59
2021/08/08 08:36:24;;;;;;;2.10;1.50;;;16.80;99.90;;;;;;5051256;28;20448;-59
2021/08/08 08:38:51;;;;;;;1.70;1.40;;;16.70;99.90;;;;;;5051178;28;20847;-59
2021/08/08 08:41:18;;;;;;;4.17;1.67;;;16.60;99.90;;;;;;5050699;28;20456;-59
2021/08/08 08:43:46;;;;;;;2.10;1.27;;;16.70;99.90;;;;;;5050822;28;20447;-58
2021/08/08 08:46:14;;;;;;;2.33;1.20;;;16.70;99.90;;;;;;5054527;28;20851;-59
2021/08/08 08:48:42;;;;;;;2.07;1.37;;;16.80;99.90;;;;;;5054194;28;20949;-59
2021/08/08 08:51:10;;;;;;;3.10;2.30;;;16.90;99.90;;;;;;5054094;28;20451;-59
2021/08/08 08:53:39;;;;;;;2.50;1.70;;;17.10;99.90;;;;;;5053445;28;20510;-59
2021/08/08 08:56:06;;;;;;;2.90;1.50;;;17.20;99.90;;;;;;5053667;28;20941;-59
2021/08/08 08:58:33;;;;;;;3.50;1.53;;;17.30;99.90;;;;;;5053716;28;20902;-59
2021/08/08 09:01:00;;;;;;;3.73;2.10;;;17.40;99.90;;;;;;5053686;28;20509;-59
2021/08/08 09:03:28;;;;;;;2.43;1.67;;;17.50;99.90;;;;;;5052645;28;20451;-60
2021/08/08 09:05:55;;;;;;;1.37;1.20;;;17.50;99.90;;;;;;5045916;28;20524;-59
2021/08/08 09:08:22;;;;;;;1.20;1.10;;;17.40;99.90;;;;;;5054032;28;20490;-59
2021/08/08 09:11:03;;;;;;;3.67;1.67;;;17.50;99.90;;;;;;5053781;28;20452;-59
2021/08/08 09:13:30;;;;;;;1.27;1.17;;;17.60;99.90;;;;;;5053276;28;20527;-58
2021/08/08 09:15:58;;;;;;;6.60;1.50;;;17.70;99.90;;;;;;5048446;28;20961;-59
2021/08/08 09:18:25;;;;;;;3.13;1.20;;;17.80;99.90;;;;;;5053250;28;20498;-58
2021/08/08 09:20:53;;;;;;;2.53;1.20;;;17.90;99.90;;;;;;5053735;28;20448;-59
2021/08/08 09:23:20;;;;;;;2.00;1.20;;;18.10;99.90;;;;;;5053175;28;20542;-59
2021/08/08 09:25:52;;;;;;;2.67;1.30;;;18.30;99.90;;;;;;5053457;28;20981;-59
2021/08/08 09:28:28;;;;;;;3.23;1.70;;;18.40;99.90;;;;;;5053564;28;20449;-58
2021/08/08 09:30:56;;;;;;;6.60;1.20;;;18.40;99.90;;;;;;5053828;28;20455;-59
2021/08/08 09:33:23;;;;;;;1.97;1.27;;;18.50;99.90;;;;;;5053077;28;20513;-59
2021/08/08 09:35:53;;;;;;;1.57;1.07;;;18.60;99.90;;;;;;5097753;22;20498;-54
2021/08/08 09:38:21;;;;;;;3.00;1.30;;;18.50;99.90;;;;;;5088387;28;20488;-52
2021/08/08 09:40:57;;;;;;;2.50;1.40;;;18.50;99.90;;;;;;5093262;28;20529;-52
2021/08/08 09:43:28;;;;;;;1.27;1.10;;;18.50;99.90;;;;;;5093355;28;20511;-55
2021/08/08 09:45:55;;;;;;;2.30;1.20;;;18.60;99.90;;;;;;5093454;28;20466;-55
2021/08/08 09:48:22;;;;;;;4.00;1.20;;;18.50;99.90;;;;;;5091466;28;20511;-54
2021/08/08 09:50:49;;;;;;;1.97;1.60;;;18.40;99.90;;;;;;5065943;28;20524;-54
2021/08/08 09:53:18;;;;;;;2.20;1.00;;;18.50;99.90;;;;;;5058139;28;20444;-55
2021/08/08 09:55:45;;;;;;;1.37;1.10;;;18.70;99.90;;;;;;5062977;28;20490;-53
2021/08/08 09:58:20;;;;;;;3.53;1.10;;;18.70;99.90;;;;;;5088461;28;20560;-52
2021/08/08 10:00:49;;;;;;;2.70;1.80;;;18.80;99.90;;;;;;5070463;28;20450;-53
2021/08/08 10:03:17;;;;;;;3.50;1.40;;;19.00;99.90;;;;;;5052802;28;20451;-53
2021/08/08 10:05:46;;;;;;;4.20;1.50;;;19.00;99.90;;;;;;5062938;28;20459;-53
2021/08/08 10:08:15;;;;;;;1.40;1.10;;;19.20;99.90;;;;;;5072518;28;20451;-54
2021/08/08 10:10:43;;;;;;;2.30;1.40;;;19.30;99.90;;;;;;5072967;28;20439;-54
2021/08/08 10:13:24;;;;;;;3.20;1.47;;;19.20;99.90;;;;;;5072624;28;20442;-53
2021/08/08 10:15:54;;;;;;;2.30;1.60;;;19.20;99.90;;;;;;5072766;28;20860;-52
2021/08/08 10:18:25;;;;;;;1.77;1.10;;;19.40;99.90;;;;;;5073367;28;20478;-52
2021/08/08 10:20:53;;;;;;;3.73;1.30;;;19.30;99.90;;;;;;5072588;28;20983;-52
2021/08/08 10:23:21;;;;;;;2.50;1.33;;;19.20;99.90;;;;;;5073670;28;20451;-52
2021/08/08 10:25:51;;;;;;;1.10;1.00;;;19.00;99.90;;;;;;5071973;28;20540;-51
2021/08/08 10:28:20;;;;;;;3.23;1.70;;;18.90;99.90;;;;;;5065185;28;20447;-52
2021/08/08 10:30:48;;;;;;;1.40;1.20;;;18.80;99.90;;;;;;5066766;28;20452;-51
2021/08/08 10:33:16;;;;;;;2.17;1.33;;;18.80;99.90;;;;;;5062582;28;20475;-52
2021/08/08 10:35:45;;;;;;;2.37;1.30;;;19.00;99.90;;;;;;5071518;28;20478;-52
2021/08/08 10:38:14;;;;;;;1.70;1.37;;;18.80;99.90;;;;;;5065457;28;20549;-52
2021/08/08 10:40:41;;;;;;;1.90;1.27;;;18.60;99.90;;;;;;5052343;28;20870;-52
2021/08/08 10:43:21;;;;;;;6.10;1.50;;;18.60;99.90;;;;;;5052150;28;20443;-52
2021/08/08 10:45:48;;;;;;;4.10;1.50;;;18.60;99.90;;;;;;5064176;28;20471;-54
2021/08/08 10:48:16;;;;;;;3.50;1.70;;;18.20;99.90;;;;;;5052414;28;20451;-53
2021/08/08 10:50:45;;;;;;;4.40;1.80;;;17.70;99.90;;;;;;5061339;28;20451;-52
2021/08/08 10:53:24;;;;;;;2.23;1.80;;;17.10;99.90;;;;;;5071791;28;20500;-54
2021/08/08 10:56:02;;;;;;;3.73;1.30;;;16.90;99.90;;;;;;5072068;28;20470;-53
2021/08/08 10:58:32;;;;;;;1.60;1.50;;;17.00;99.90;;;;;;5071378;28;20471;-52
2021/08/08 11:00:59;;;;;;;4.23;1.90;;;17.00;99.90;;;;;;5067747;28;20535;-51
2021/08/08 11:03:27;;;;;;;3.77;2.27;;;17.10;99.90;;;;;;5051656;28;20933;-52
2021/08/08 11:05:55;;;;;;;2.30;1.17;;;17.30;99.90;;;;;;5050911;28;20476;-51
2021/08/08 11:08:24;;;;;;;1.43;1.00;;;17.30;99.90;;;;;;5062571;28;20492;-52
2021/08/08 11:10:51;;;;;;;1.30;1.20;;;17.50;99.90;;;;;;5071745;28;20450;-52
2021/08/08 11:13:20;;;;;;;3.43;1.03;;;17.80;99.90;;;;;;5071509;28;20495;-52
2021/08/08 11:15:47;;;;;;;2.07;1.40;;;18.00;99.90;;;;;;5071624;28;20972;-52
2021/08/08 11:18:15;;;;;;;4.33;1.60;;;18.30;99.90;;;;;;5068112;28;20475;-51
2021/08/08 11:20:43;;;;;;;2.90;1.30;;;18.50;99.90;;;;;;5071759;28;20492;-52
2021/08/08 11:23:11;;;;;;;4.57;2.43;;;18.50;99.90;;;;;;5071470;28;20537;-52
2021/08/08 11:25:41;;;;;;;1.57;1.20;;;18.40;99.90;;;;;;5070293;28;20470;-51
2021/08/08 11:28:08;;;;;;;2.40;1.40;;;18.60;99.90;;;;;;5071487;28;21002;-52
2021/08/08 11:30:40;;;;;;;1.60;1.07;;;18.70;99.90;;;;;;5071636;28;20933;-52
2021/08/08 11:33:08;;;;;;;1.20;1.10;;;18.60;99.90;;;;;;5071431;28;20446;-52
2021/08/08 11:35:35;;;;;;;2.70;1.20;;;18.50;99.90;;;;;;5071132;28;20547;-52
2021/08/08 11:38:14;;;;;;;1.20;1.10;;;18.50;99.90;;;;;;5071414;28;20489;-52
2021/08/08 11:40:44;;;;;;;1.83;1.17;;;18.30;99.90;;;;;;5071720;28;20504;-52
2021/08/08 11:43:11;;;;;;;4.83;1.40;;;18.20;99.90;;;;;;5071156;28;20457;-51
2021/08/08 11:45:40;;;;;;;1.10;1.00;;;18.00;99.90;;;;;;5055842;28;20472;-52
2021/08/08 11:48:09;;;;;;;1.43;1.20;;;17.90;99.90;;;;;;5051393;28;20444;-52
2021/08/08 11:50:37;;;;;;;3.90;1.27;;;17.90;99.90;;;;;;5051369;28;20455;-52
2021/08/08 11:53:07;;;;;;;3.40;1.10;;;17.90;99.90;;;;;;5051017;28;20945;-52
2021/08/08 11:55:35;;;;;;;3.33;1.77;;;17.90;99.90;;;;;;5065599;28;20470;-52
2021/08/08 11:58:09;;;;;;;2.43;0.97;;;17.90;99.90;;;;;;5071203;28;20557;-52
2021/08/08 12:00:38;;;;;;;2.70;1.50;;;17.80;99.90;;;;;;5071453;28;20960;-51
2021/08/08 12:03:06;;;;;;;1.80;1.40;;;17.90;99.90;;;;;;5070940;28;20953;-51
2021/08/08 12:05:35;;;;;;;1.57;1.10;;;17.80;99.90;;;;;;5056687;28;20479;-52
2021/08/08 12:08:05;;;;;;;3.03;1.10;;;17.80;99.90;;;;;;5051278;28;20440;-51
2021/08/08 12:10:34;;;;;;;2.60;1.20;;;17.70;99.90;;;;;;5051309;28;20432;-52
2021/08/08 12:13:02;;;;;;;2.57;0.90;;;17.70;99.90;;;;;;5051062;28;20473;-51
2021/08/08 12:15:37;;;;;;;3.33;1.20;;;17.70;99.90;;;;;;5064164;28;20467;-52
2021/08/08 12:18:05;;;;;;;1.77;1.10;;;17.60;99.90;;;;;;5073022;28;20512;-52
2021/08/08 12:20:37;;;;;;;1.37;1.27;;;17.60;99.90;;;;;;5075131;28;20451;-52
2021/08/08 12:23:07;;;;;;;3.20;1.10;;;17.70;99.90;;;;;;5074577;28;20455;-52
2021/08/08 12:25:34;;;;;;;2.90;1.10;;;17.80;99.90;;;;;;5063530;28;20478;-52
2021/08/08 12:28:01;;;;;;;3.67;1.37;;;17.80;99.90;;;;;;5059061;28;20959;-52
2021/08/08 12:30:29;;;;;;;3.07;1.30;;;17.80;99.90;;;;;;5054713;28;20447;-50
2021/08/08 12:33:07;;;;;;;2.23;1.10;;;17.90;99.90;;;;;;5054612;28;20509;-51
2021/08/08 12:35:39;;;;;;;2.90;1.53;;;17.80;99.90;;;;;;5056217;28;20544;-52
2021/08/08 12:38:09;;;;;;;1.63;1.17;;;17.90;99.90;;;;;;5074305;28;20482;-51
2021/08/08 12:40:47;;;;;;;2.70;1.20;;;18.00;99.90;;;;;;5074634;28;20525;-51
2021/08/08 12:43:21;;;;;;;2.60;1.20;;;18.20;99.90;;;;;;5073928;28;20457;-51
2021/08/08 12:45:49;;;;;;;1.57;1.20;;;18.40;99.90;;;;;;5070521;28;20555;-52
2021/08/08 12:48:16;;;;;;;1.43;1.23;;;18.50;99.90;;;;;;5054534;28;20451;-52
2021/08/08 12:50:46;;;;;;;1.87;1.30;;;18.50;99.90;;;;;;5054535;28;20513;-52
2021/08/08 12:53:14;;;;;;;3.80;2.13;;;18.50;99.90;;;;;;5054256;28;20483;-52